createdAt,value
2017-03-27T00:00:08.536Z,8.20
2017-03-27T00:01:12.599Z,8.10
2017-03-27T00:02:16.698Z,8.10
2017-03-27T00:03:20.654Z,8.10
2017-03-27T00:04:24.646Z,8.10
2017-03-27T00:05:28.620Z,8.10
2017-03-27T00:06:32.241Z,8.10
2017-03-27T00:07:36.120Z,8.20
2017-03-27T00:08:40.870Z,8.20
2017-03-27T00:09:45.024Z,8.30
2017-03-27T00:10:49.071Z,8.30
2017-03-27T00:11:52.793Z,8.30
2017-03-27T00:12:56.599Z,8.30
2017-03-27T00:14:00.251Z,8.50
2017-03-27T00:15:04.271Z,8.40
2017-03-27T00:16:08.436Z,8.50
2017-03-27T00:17:12.086Z,8.50
2017-03-27T00:18:17.175Z,8.50
2017-03-27T00:19:21.535Z,8.50
2017-03-27T00:20:25.323Z,8.50
2017-03-27T00:21:29.222Z,8.50
2017-03-27T00:22:32.677Z,8.60
2017-03-27T00:23:36.392Z,8.60
2017-03-27T00:24:40.081Z,8.60
2017-03-27T00:25:43.777Z,8.50
2017-03-27T00:26:47.251Z,8.50
2017-03-27T00:27:50.886Z,8.50
2017-03-27T00:28:54.460Z,8.50
2017-03-27T00:29:58.352Z,8.50
2017-03-27T00:31:02.376Z,8.50
2017-03-27T00:32:06.580Z,8.50
2017-03-27T00:33:12.017Z,8.40
2017-03-27T00:34:15.825Z,8.40
2017-03-27T00:35:19.997Z,8.40
2017-03-27T00:36:23.993Z,8.40
2017-03-27T00:37:27.896Z,8.40
2017-03-27T00:38:31.590Z,8.40
2017-03-27T00:39:35.428Z,8.40
2017-03-27T00:40:39.362Z,8.40
2017-03-27T00:41:43.198Z,8.40
2017-03-27T00:42:47.754Z,8.40
2017-03-27T00:43:52.000Z,8.50
2017-03-27T00:44:56.239Z,8.60
2017-03-27T00:46:00.242Z,8.70
2017-03-27T00:47:04.063Z,8.70
2017-03-27T00:48:07.817Z,8.60
2017-03-27T00:49:11.766Z,8.60
2017-03-27T00:50:15.772Z,8.60
2017-03-27T00:51:19.689Z,8.60
2017-03-27T00:52:23.702Z,8.60
2017-03-27T00:53:27.486Z,8.60
2017-03-27T00:54:31.301Z,8.60
2017-03-27T00:55:35.094Z,8.60
2017-03-27T00:56:38.669Z,8.70
2017-03-27T00:57:42.258Z,8.70
2017-03-27T00:58:46.912Z,8.70
2017-03-27T00:59:50.997Z,8.80
2017-03-27T01:00:54.722Z,8.80
2017-03-27T01:01:59.141Z,8.90
2017-03-27T01:03:03.083Z,8.90
2017-03-27T01:04:07.497Z,8.90
2017-03-27T01:05:11.592Z,8.90
2017-03-27T01:06:15.281Z,8.80
2017-03-27T01:07:19.203Z,8.90
2017-03-27T01:08:23.195Z,8.90
2017-03-27T01:09:27.920Z,8.80
2017-03-27T01:10:31.585Z,8.80
2017-03-27T01:11:36.461Z,8.80
2017-03-27T01:12:40.628Z,8.80
2017-03-27T01:13:44.657Z,8.80
2017-03-27T01:14:48.341Z,8.80
2017-03-27T01:15:52.221Z,8.80
2017-03-27T01:16:56.015Z,8.80
2017-03-27T01:18:01.191Z,8.80
2017-03-27T01:19:04.962Z,8.80
2017-03-27T01:20:09.045Z,8.90
2017-03-27T01:21:13.262Z,9.00
2017-03-27T01:22:17.250Z,9.10
2017-03-27T01:23:21.344Z,9.30
2017-03-27T01:24:24.989Z,9.50
2017-03-27T01:25:29.098Z,9.70
2017-03-27T01:26:33.658Z,9.70
2017-03-27T01:27:37.357Z,9.80
2017-03-27T01:28:41.172Z,9.90
2017-03-27T01:29:44.897Z,10.00
2017-03-27T01:30:48.772Z,10.10
2017-03-27T01:31:52.788Z,10.20
2017-03-27T01:32:57.629Z,10.20
2017-03-27T01:34:01.521Z,10.20
2017-03-27T01:35:06.077Z,10.20
2017-03-27T01:36:10.388Z,10.20
2017-03-27T01:37:13.691Z,10.30
2017-03-27T01:38:17.529Z,10.40
2017-03-27T01:39:21.496Z,10.50
2017-03-27T01:40:25.410Z,10.50
2017-03-27T01:41:28.668Z,10.40
2017-03-27T01:42:32.177Z,10.40
2017-03-27T01:43:37.514Z,10.50
2017-03-27T01:44:42.256Z,10.40
2017-03-27T01:45:46.411Z,10.40
2017-03-27T01:46:49.624Z,10.40
2017-03-27T01:47:53.605Z,10.50
2017-03-27T01:48:57.401Z,10.60
2017-03-27T01:50:02.047Z,10.50
2017-03-27T01:51:05.982Z,10.70
2017-03-27T01:52:10.044Z,10.90
2017-03-27T01:53:13.805Z,11.00
2017-03-27T01:54:17.650Z,11.10
2017-03-27T01:55:21.378Z,11.20
2017-03-27T01:56:25.898Z,11.30
2017-03-27T01:57:29.841Z,11.40
2017-03-27T01:58:33.570Z,11.50
2017-03-27T01:59:37.486Z,11.60
2017-03-27T02:00:41.177Z,11.60
2017-03-27T02:01:45.861Z,11.40
2017-03-27T02:02:49.713Z,11.20
2017-03-27T02:03:53.728Z,10.90
2017-03-27T02:04:57.584Z,10.90
2017-03-27T02:06:01.542Z,10.90
2017-03-27T02:07:05.739Z,10.70
2017-03-27T02:08:09.756Z,10.50
2017-03-27T02:09:13.497Z,10.60
2017-03-27T02:10:18.107Z,10.60
2017-03-27T02:11:21.786Z,10.50
2017-03-27T02:12:26.018Z,10.40
2017-03-27T02:13:30.552Z,10.30
2017-03-27T02:14:34.431Z,10.30
2017-03-27T02:15:38.276Z,10.40
2017-03-27T02:16:42.096Z,10.50
2017-03-27T02:17:45.970Z,10.60
2017-03-27T02:18:50.085Z,10.60
2017-03-27T02:19:54.150Z,10.50
2017-03-27T02:20:58.567Z,10.50
2017-03-27T02:22:03.469Z,10.50
2017-03-27T02:23:07.586Z,10.50
2017-03-27T02:24:12.111Z,10.40
2017-03-27T02:25:16.292Z,10.40
2017-03-27T02:26:20.739Z,10.40
2017-03-27T02:27:24.706Z,10.40
2017-03-27T02:28:28.775Z,10.40
2017-03-27T02:29:32.904Z,10.50
2017-03-27T02:30:36.705Z,10.60
2017-03-27T02:31:40.249Z,10.50
2017-03-27T02:32:43.721Z,10.50
2017-03-27T02:33:47.886Z,10.50
2017-03-27T02:34:51.767Z,10.60
2017-03-27T02:35:56.472Z,10.70
2017-03-27T02:37:00.228Z,10.60
2017-03-27T02:38:03.889Z,10.50
2017-03-27T02:39:07.902Z,10.40
2017-03-27T02:40:12.815Z,10.30
2017-03-27T02:41:16.406Z,10.20
2017-03-27T02:42:20.722Z,10.20
2017-03-27T02:43:24.483Z,10.20
2017-03-27T02:44:29.936Z,10.20
2017-03-27T02:45:34.026Z,10.20
2017-03-27T02:46:38.515Z,10.10
2017-03-27T02:47:42.345Z,10.10
2017-03-27T02:48:46.059Z,10.00
2017-03-27T02:49:50.177Z,9.80
2017-03-27T02:50:53.741Z,9.80
2017-03-27T02:51:57.710Z,9.70
2017-03-27T02:53:01.406Z,9.70
2017-03-27T02:54:04.810Z,9.70
2017-03-27T02:55:08.857Z,9.80
2017-03-27T02:56:12.762Z,9.80
2017-03-27T02:57:16.558Z,9.90
2017-03-27T02:58:20.580Z,10.00
2017-03-27T02:59:24.472Z,10.10
2017-03-27T03:00:28.338Z,10.10
2017-03-27T03:01:32.884Z,10.10
2017-03-27T03:02:36.627Z,10.30
2017-03-27T03:03:40.507Z,10.20
2017-03-27T03:04:44.116Z,10.10
2017-03-27T03:05:48.149Z,10.00
2017-03-27T03:06:52.364Z,9.90
2017-03-27T03:07:56.920Z,9.90
2017-03-27T03:09:01.505Z,9.80
2017-03-27T03:10:05.571Z,9.90
2017-03-27T03:11:12.481Z,9.90
2017-03-27T03:12:16.149Z,9.90
2017-03-27T03:13:19.702Z,9.90
2017-03-27T03:14:23.350Z,9.80
2017-03-27T03:15:27.775Z,9.60
2017-03-27T03:16:31.509Z,9.60
2017-03-27T03:17:35.883Z,9.60
2017-03-27T03:18:39.872Z,9.80
2017-03-27T03:19:43.495Z,9.90
2017-03-27T03:20:47.737Z,10.00
2017-03-27T03:21:51.865Z,10.00
2017-03-27T03:22:56.593Z,10.20
2017-03-27T03:24:00.481Z,10.10
2017-03-27T03:25:03.691Z,9.80
2017-03-27T03:26:07.467Z,9.80
2017-03-27T03:27:11.489Z,9.90
2017-03-27T03:28:15.481Z,10.00
2017-03-27T03:29:19.257Z,10.20
2017-03-27T03:30:23.837Z,10.10
2017-03-27T03:31:27.811Z,10.10
2017-03-27T03:32:30.969Z,10.10
2017-03-27T03:33:35.049Z,10.20
2017-03-27T03:34:38.867Z,10.40
2017-03-27T03:35:42.764Z,10.40
2017-03-27T03:36:46.426Z,10.40
2017-03-27T03:37:51.181Z,10.10
2017-03-27T03:38:54.876Z,10.20
2017-03-27T03:39:58.680Z,10.20
2017-03-27T03:41:01.884Z,10.30
2017-03-27T03:42:05.836Z,10.40
2017-03-27T03:43:09.556Z,10.50
2017-03-27T03:44:13.462Z,10.70
2017-03-27T03:45:18.527Z,10.70
2017-03-27T03:46:23.061Z,10.70
2017-03-27T03:47:27.105Z,10.50
2017-03-27T03:48:30.877Z,10.40
2017-03-27T03:49:34.712Z,10.40
2017-03-27T03:50:38.701Z,10.50
2017-03-27T03:51:42.277Z,10.60
2017-03-27T03:52:46.426Z,10.70
2017-03-27T03:53:50.358Z,10.80
2017-03-27T03:54:53.768Z,10.90
2017-03-27T03:55:57.421Z,10.70
2017-03-27T03:57:01.293Z,10.40
2017-03-27T03:58:05.159Z,10.10
2017-03-27T03:59:08.937Z,9.90
2017-03-27T04:00:13.048Z,9.90
2017-03-27T04:01:16.978Z,10.10
2017-03-27T04:02:26.745Z,10.10
2017-03-27T04:03:40.725Z,10.10
2017-03-27T04:04:46.986Z,10.00
2017-03-27T04:05:50.838Z,10.10
2017-03-27T04:06:54.908Z,10.00
2017-03-27T04:07:58.595Z,9.80
2017-03-27T04:09:03.255Z,9.60
2017-03-27T04:10:07.252Z,9.70
2017-03-27T04:11:10.886Z,9.90
2017-03-27T04:12:14.675Z,10.00
2017-03-27T04:13:18.394Z,10.10
2017-03-27T04:14:22.402Z,10.20
2017-03-27T04:15:26.408Z,10.30
2017-03-27T04:16:44.525Z,10.40
2017-03-27T04:17:48.470Z,10.30
2017-03-27T04:18:52.313Z,10.20
2017-03-27T04:19:56.245Z,10.30
2017-03-27T04:21:00.042Z,10.10
2017-03-27T04:22:03.700Z,10.20
2017-03-27T04:23:08.735Z,10.30
2017-03-27T04:24:12.417Z,10.40
2017-03-27T04:25:16.220Z,10.40
2017-03-27T04:26:20.305Z,10.10
2017-03-27T04:27:24.060Z,9.80
2017-03-27T04:28:27.661Z,9.40
2017-03-27T04:29:32.287Z,9.10
2017-03-27T04:30:36.185Z,8.90
2017-03-27T04:31:39.950Z,8.80
2017-03-27T04:32:43.676Z,8.80
2017-03-27T04:33:47.734Z,8.70
2017-03-27T04:34:51.312Z,8.60
2017-03-27T04:35:54.889Z,8.50
2017-03-27T04:36:58.789Z,8.50
2017-03-27T04:38:02.599Z,8.50
2017-03-27T04:39:06.657Z,8.60
2017-03-27T04:40:10.256Z,8.60
2017-03-27T04:41:14.364Z,8.80
2017-03-27T04:42:18.296Z,8.90
2017-03-27T04:43:22.420Z,8.90
2017-03-27T04:44:26.126Z,8.70
2017-03-27T04:45:30.988Z,8.60
2017-03-27T04:46:34.838Z,8.50
2017-03-27T04:47:38.922Z,8.40
2017-03-27T04:48:42.307Z,8.40
2017-03-27T04:49:46.954Z,8.20
2017-03-27T04:50:50.942Z,8.20
2017-03-27T04:51:55.074Z,8.30
2017-03-27T04:52:58.758Z,8.30
2017-03-27T04:54:02.577Z,8.20
2017-03-27T04:55:06.374Z,8.20
2017-03-27T04:56:09.957Z,8.20
2017-03-27T04:57:13.584Z,8.10
2017-03-27T04:58:18.152Z,8.00
2017-03-27T04:59:22.325Z,7.90
2017-03-27T05:00:26.749Z,7.90
2017-03-27T05:01:30.927Z,7.90
2017-03-27T05:02:34.675Z,7.90
2017-03-27T05:03:38.535Z,7.90
2017-03-27T05:04:42.349Z,8.00
2017-03-27T05:05:46.612Z,8.00
2017-03-27T05:06:50.701Z,8.00
2017-03-27T05:07:54.349Z,8.10
2017-03-27T05:08:58.168Z,8.20
2017-03-27T05:10:01.734Z,8.30
2017-03-27T05:11:05.690Z,8.30
2017-03-27T05:12:10.969Z,8.30
2017-03-27T05:13:15.038Z,8.30
2017-03-27T05:14:19.092Z,8.20
2017-03-27T05:15:23.688Z,8.10
2017-03-27T05:16:27.594Z,8.00
2017-03-27T05:17:31.277Z,8.00
2017-03-27T05:18:34.997Z,8.00
2017-03-27T05:19:39.100Z,8.00
2017-03-27T05:20:42.894Z,8.00
2017-03-27T05:21:46.640Z,8.00
2017-03-27T05:22:50.452Z,8.00
2017-03-27T05:23:54.134Z,8.00
2017-03-27T05:24:58.185Z,8.10
2017-03-27T05:26:02.109Z,8.10
2017-03-27T05:27:06.050Z,8.10
2017-03-27T05:28:10.059Z,8.10
2017-03-27T05:29:13.916Z,8.10
2017-03-27T05:30:17.648Z,8.20
2017-03-27T05:31:20.831Z,8.20
2017-03-27T05:32:24.666Z,8.20
2017-03-27T05:33:28.443Z,8.30
2017-03-27T05:34:32.429Z,8.30
2017-03-27T05:35:36.260Z,8.30
2017-03-27T05:36:40.087Z,8.30
2017-03-27T05:37:44.010Z,8.40
2017-03-27T05:38:47.916Z,8.40
2017-03-27T05:39:51.400Z,8.50
2017-03-27T05:40:55.505Z,8.50
2017-03-27T05:41:59.160Z,8.50
2017-03-27T05:43:02.987Z,8.60
2017-03-27T05:44:06.904Z,8.70
2017-03-27T05:45:10.708Z,8.70
2017-03-27T05:46:15.943Z,8.70
2017-03-27T05:47:19.846Z,8.70
2017-03-27T05:48:23.673Z,8.60
2017-03-27T05:49:28.022Z,8.60
2017-03-27T05:50:31.882Z,8.70
2017-03-27T05:51:35.795Z,8.70
2017-03-27T05:52:39.649Z,8.80
2017-03-27T05:53:43.358Z,8.70
2017-03-27T05:54:47.020Z,8.70
2017-03-27T05:55:50.673Z,8.70
2017-03-27T05:56:54.375Z,8.70
2017-03-27T05:57:58.024Z,8.80
2017-03-27T05:59:02.059Z,8.80
2017-03-27T06:00:06.514Z,8.80
2017-03-27T06:01:10.542Z,8.80
2017-03-27T06:02:14.229Z,8.90
2017-03-27T06:03:18.520Z,8.80
2017-03-27T06:04:22.194Z,8.80
2017-03-27T06:05:26.977Z,8.80
2017-03-27T06:06:30.971Z,8.70
2017-03-27T06:07:35.551Z,8.60
2017-03-27T06:08:39.264Z,8.60
2017-03-27T06:09:43.014Z,8.60
2017-03-27T06:10:47.030Z,8.50
2017-03-27T06:11:50.837Z,8.50
2017-03-27T06:12:54.999Z,8.40
2017-03-27T06:13:59.129Z,8.40
2017-03-27T06:15:03.001Z,8.40
2017-03-27T06:16:06.851Z,8.30
2017-03-27T06:17:10.867Z,8.30
2017-03-27T06:18:14.821Z,8.30
2017-03-27T06:19:18.561Z,8.30
2017-03-27T06:20:22.502Z,8.30
2017-03-27T06:21:26.241Z,8.30
2017-03-27T06:22:30.018Z,8.40
2017-03-27T06:23:33.954Z,8.40
2017-03-27T06:24:38.083Z,8.40
2017-03-27T06:25:41.923Z,8.40
2017-03-27T06:26:45.867Z,8.40
2017-03-27T06:27:50.573Z,8.40
2017-03-27T06:28:54.373Z,8.30
2017-03-27T06:29:58.990Z,8.40
2017-03-27T06:31:03.044Z,8.30
2017-03-27T06:32:07.063Z,8.20
2017-03-27T06:33:10.884Z,8.20
2017-03-27T06:34:15.338Z,8.10
2017-03-27T06:35:19.253Z,8.20
2017-03-27T06:36:23.054Z,8.10
2017-03-27T06:37:28.015Z,8.10
2017-03-27T06:38:32.087Z,8.10
2017-03-27T06:39:35.996Z,8.10
2017-03-27T06:40:39.773Z,8.00
2017-03-27T06:41:43.509Z,8.00
2017-03-27T06:42:48.281Z,8.00
2017-03-27T06:43:52.062Z,8.00
2017-03-27T06:44:55.962Z,8.00
2017-03-27T06:46:00.394Z,8.00
2017-03-27T06:47:05.195Z,8.00
2017-03-27T06:48:08.864Z,8.00
2017-03-27T06:49:12.590Z,8.10
2017-03-27T06:50:16.353Z,8.10
2017-03-27T06:51:20.372Z,8.10
2017-03-27T06:52:23.977Z,8.10
2017-03-27T06:53:27.847Z,8.20
2017-03-27T06:54:31.671Z,8.20
2017-03-27T06:55:35.845Z,8.20
2017-03-27T06:56:39.550Z,8.20
2017-03-27T06:57:43.270Z,8.20
2017-03-27T06:58:46.852Z,8.10
2017-03-27T06:59:50.611Z,8.10
2017-03-27T07:00:54.856Z,8.10
2017-03-27T07:01:58.647Z,8.10
2017-03-27T07:03:02.605Z,8.10
2017-03-27T07:04:06.442Z,8.10
2017-03-27T07:05:11.177Z,8.00
2017-03-27T07:06:14.982Z,8.00
2017-03-27T07:07:18.860Z,8.00
2017-03-27T07:08:22.638Z,8.10
2017-03-27T07:09:26.843Z,8.10
2017-03-27T07:10:30.846Z,8.10
2017-03-27T07:11:34.840Z,8.10
2017-03-27T07:12:38.731Z,8.10
2017-03-27T07:13:42.612Z,8.10
2017-03-27T07:14:47.170Z,8.10
2017-03-27T07:15:50.767Z,8.10
2017-03-27T07:16:54.661Z,8.10
2017-03-27T07:17:58.477Z,8.00
2017-03-27T07:19:02.330Z,8.00
2017-03-27T07:20:06.251Z,8.00
2017-03-27T07:21:10.055Z,8.00
2017-03-27T07:22:13.841Z,8.00
2017-03-27T07:23:17.521Z,8.00
2017-03-27T07:24:21.397Z,8.00
2017-03-27T07:25:25.206Z,8.00
2017-03-27T07:26:28.369Z,8.00
2017-03-27T07:27:32.128Z,8.00
2017-03-27T07:28:35.650Z,8.10
2017-03-27T07:29:39.447Z,8.00
2017-03-27T07:30:43.124Z,8.00
2017-03-27T07:31:46.873Z,8.10
2017-03-27T07:32:50.827Z,8.20
2017-03-27T07:33:54.829Z,8.20
2017-03-27T07:34:58.469Z,8.20
2017-03-27T07:36:02.484Z,8.20
2017-03-27T07:37:07.398Z,8.30
2017-03-27T07:38:11.335Z,8.30
2017-03-27T07:39:14.983Z,8.30
2017-03-27T07:40:18.621Z,8.30
2017-03-27T07:41:22.646Z,8.30
2017-03-27T07:42:26.447Z,8.20
2017-03-27T07:43:30.431Z,8.20
2017-03-27T07:44:34.019Z,8.20
2017-03-27T07:45:37.879Z,8.20
2017-03-27T07:46:41.605Z,8.20
2017-03-27T07:47:46.200Z,8.20
2017-03-27T07:48:50.221Z,8.20
2017-03-27T07:49:53.970Z,8.20
2017-03-27T07:50:57.079Z,8.20
2017-03-27T07:52:00.834Z,8.20
2017-03-27T07:53:04.293Z,8.20
2017-03-27T07:54:08.139Z,8.20
2017-03-27T07:55:12.186Z,8.30
2017-03-27T07:56:15.979Z,8.30
2017-03-27T07:57:19.858Z,8.40
2017-03-27T07:58:23.929Z,8.40
2017-03-27T07:59:27.655Z,8.40
2017-03-27T08:00:31.532Z,8.40
2017-03-27T08:01:35.627Z,8.40
2017-03-27T08:02:39.625Z,8.40
2017-03-27T08:03:43.314Z,8.40
2017-03-27T08:04:47.126Z,8.40
2017-03-27T08:05:50.842Z,8.40
2017-03-27T08:06:54.623Z,8.40
2017-03-27T08:07:58.147Z,8.40
2017-03-27T08:09:02.828Z,8.50
2017-03-27T08:10:07.632Z,8.50
2017-03-27T08:11:11.536Z,8.50
2017-03-27T08:12:15.300Z,8.60
2017-03-27T08:13:19.312Z,8.70
2017-03-27T08:14:23.103Z,8.70
2017-03-27T08:15:26.934Z,8.90
2017-03-27T08:16:30.621Z,8.80
2017-03-27T08:17:34.733Z,8.60
2017-03-27T08:18:38.998Z,8.60
2017-03-27T08:19:42.980Z,8.60
2017-03-27T08:20:46.765Z,8.60
2017-03-27T08:21:50.572Z,8.60
2017-03-27T08:22:54.430Z,8.60
2017-03-27T08:23:58.751Z,8.50
2017-03-27T08:25:02.488Z,8.50
2017-03-27T08:26:06.319Z,8.50
2017-03-27T08:27:10.188Z,8.60
2017-03-27T08:28:14.255Z,8.60
2017-03-27T08:29:18.273Z,8.60
2017-03-27T08:30:22.009Z,8.70
2017-03-27T08:31:25.755Z,8.70
2017-03-27T08:32:29.784Z,8.70
2017-03-27T08:33:33.558Z,8.70
2017-03-27T08:34:37.441Z,8.60
2017-03-27T08:35:41.497Z,8.50
2017-03-27T08:36:45.429Z,8.40
2017-03-27T08:37:49.978Z,8.30
2017-03-27T08:38:53.868Z,8.50
2017-03-27T08:39:57.623Z,8.60
2017-03-27T08:41:01.382Z,8.50
2017-03-27T08:42:04.988Z,8.50
2017-03-27T08:43:08.869Z,8.40
2017-03-27T08:44:12.847Z,8.40
2017-03-27T08:45:16.543Z,8.30
2017-03-27T08:46:20.586Z,8.30
2017-03-27T08:47:24.592Z,8.30
2017-03-27T08:48:28.823Z,8.20
2017-03-27T08:49:32.943Z,8.20
2017-03-27T08:50:36.962Z,8.20
2017-03-27T08:51:40.860Z,8.10
2017-03-27T08:52:44.648Z,8.10
2017-03-27T08:53:48.676Z,8.20
2017-03-27T08:54:52.569Z,8.20
2017-03-27T08:55:56.954Z,8.20
2017-03-27T08:57:00.950Z,8.20
2017-03-27T08:58:04.973Z,8.30
2017-03-27T08:59:08.539Z,8.30
2017-03-27T09:00:12.065Z,8.30
2017-03-27T09:01:16.145Z,8.30
2017-03-27T09:02:20.184Z,8.30
2017-03-27T09:03:24.430Z,8.30
2017-03-27T09:04:28.253Z,8.30
2017-03-27T09:05:32.717Z,8.30
2017-03-27T09:06:36.497Z,8.30
2017-03-27T09:07:40.419Z,8.30
2017-03-27T09:08:44.235Z,8.30
2017-03-27T09:09:48.077Z,8.30
2017-03-27T09:10:51.810Z,8.30
2017-03-27T09:11:55.657Z,8.20
2017-03-27T09:12:59.493Z,8.20
2017-03-27T09:14:04.296Z,8.20
2017-03-27T09:15:07.924Z,8.20
2017-03-27T09:16:11.403Z,8.20
2017-03-27T09:17:15.061Z,8.30
2017-03-27T09:18:18.925Z,8.30
2017-03-27T09:19:23.422Z,8.30
2017-03-27T09:20:27.366Z,8.20
2017-03-27T09:21:31.081Z,8.20
2017-03-27T09:22:34.791Z,8.20
2017-03-27T09:23:38.734Z,8.20
2017-03-27T09:24:42.737Z,8.30
2017-03-27T09:25:46.561Z,8.30
2017-03-27T09:26:50.495Z,8.30
2017-03-27T09:27:54.318Z,8.20
2017-03-27T09:28:58.305Z,8.20
2017-03-27T09:30:02.181Z,8.20
2017-03-27T09:31:06.762Z,8.10
2017-03-27T09:32:10.606Z,8.20
2017-03-27T09:33:14.400Z,8.20
2017-03-27T09:34:18.801Z,8.30
2017-03-27T09:35:22.687Z,8.20
2017-03-27T09:36:26.567Z,8.20
2017-03-27T09:37:29.918Z,8.20
2017-03-27T09:38:33.793Z,8.00
2017-03-27T09:39:37.515Z,8.20
2017-03-27T09:40:42.048Z,8.10
2017-03-27T09:41:45.894Z,8.10
2017-03-27T09:42:49.919Z,8.00
2017-03-27T09:43:53.717Z,8.10
2017-03-27T09:44:57.618Z,8.10
2017-03-27T09:46:01.390Z,8.10
2017-03-27T09:47:05.159Z,8.10
2017-03-27T09:48:08.787Z,8.10
2017-03-27T09:49:28.139Z,8.00
2017-03-27T09:50:32.786Z,7.90
2017-03-27T09:51:36.815Z,7.90
2017-03-27T09:52:40.601Z,7.90
2017-03-27T09:53:44.251Z,7.80
2017-03-27T09:54:48.045Z,7.90
2017-03-27T09:55:51.764Z,7.90
2017-03-27T09:56:55.664Z,7.80
2017-03-27T09:57:59.337Z,7.80
2017-03-27T09:59:02.951Z,7.80
2017-03-27T10:00:06.494Z,7.90
2017-03-27T10:01:10.200Z,7.90
2017-03-27T10:02:13.885Z,8.00
2017-03-27T10:03:18.583Z,8.00
2017-03-27T10:04:22.246Z,8.00
2017-03-27T10:05:26.270Z,7.90
2017-03-27T10:06:31.053Z,7.90
2017-03-27T10:07:34.630Z,7.90
2017-03-27T10:08:38.605Z,7.90
2017-03-27T10:09:42.279Z,8.00
2017-03-27T10:10:46.219Z,7.90
2017-03-27T10:11:49.979Z,8.00
2017-03-27T10:12:53.888Z,8.00
2017-03-27T10:13:57.861Z,8.10
2017-03-27T10:15:01.569Z,8.20
2017-03-27T10:16:06.148Z,8.20
2017-03-27T10:17:10.061Z,8.10
2017-03-27T10:18:14.681Z,8.10
2017-03-27T10:19:18.461Z,8.00
2017-03-27T10:20:22.208Z,8.10
2017-03-27T10:21:26.166Z,8.10
2017-03-27T10:22:30.097Z,8.20
2017-03-27T10:23:34.510Z,8.30
2017-03-27T10:24:37.958Z,8.30
2017-03-27T10:25:42.044Z,8.30
2017-03-27T10:26:45.600Z,8.30
2017-03-27T10:27:49.244Z,8.20
2017-03-27T10:28:52.995Z,8.30
2017-03-27T10:29:57.038Z,8.30
2017-03-27T10:31:00.821Z,8.30
2017-03-27T10:32:04.693Z,8.20
2017-03-27T10:33:08.490Z,8.20
2017-03-27T10:34:12.271Z,8.20
2017-03-27T10:35:16.160Z,8.20
2017-03-27T10:36:19.944Z,8.30
2017-03-27T10:37:23.893Z,8.40
2017-03-27T10:38:27.649Z,8.50
2017-03-27T10:39:31.398Z,8.50
2017-03-27T10:40:35.076Z,8.50
2017-03-27T10:41:38.884Z,8.50
2017-03-27T10:42:42.790Z,8.40
2017-03-27T10:43:45.931Z,8.40
2017-03-27T10:44:49.146Z,8.50
2017-03-27T10:45:53.145Z,8.50
2017-03-27T10:46:57.123Z,8.50
2017-03-27T10:48:01.051Z,8.40
2017-03-27T10:49:04.985Z,8.40
2017-03-27T10:50:10.620Z,8.30
2017-03-27T10:51:14.573Z,8.30
2017-03-27T10:52:18.246Z,8.40
2017-03-27T10:53:22.091Z,8.40
2017-03-27T10:54:26.281Z,8.40
2017-03-27T10:55:30.070Z,8.40
2017-03-27T10:56:33.944Z,8.40
2017-03-27T10:57:37.446Z,8.50
2017-03-27T10:58:41.297Z,8.50
2017-03-27T10:59:45.082Z,8.60
2017-03-27T11:00:48.941Z,8.80
2017-03-27T11:01:52.799Z,8.70
2017-03-27T11:02:56.593Z,8.70
2017-03-27T11:04:00.458Z,8.60
2017-03-27T11:05:04.183Z,8.50
2017-03-27T11:06:08.365Z,8.50
2017-03-27T11:07:11.970Z,8.40
2017-03-27T11:08:16.853Z,8.40
2017-03-27T11:09:20.738Z,8.40
2017-03-27T11:10:24.365Z,8.40
2017-03-27T11:11:28.253Z,8.40
2017-03-27T11:12:31.849Z,8.30
2017-03-27T11:13:35.651Z,8.20
2017-03-27T11:14:39.209Z,8.30
2017-03-27T11:15:43.086Z,8.30
2017-03-27T11:16:47.216Z,8.30
2017-03-27T11:17:51.255Z,8.20
2017-03-27T11:18:55.708Z,8.20
2017-03-27T11:19:59.634Z,8.10
2017-03-27T11:21:03.485Z,8.10
2017-03-27T11:22:07.287Z,8.10
2017-03-27T11:23:11.948Z,8.10
2017-03-27T11:24:15.871Z,8.00
2017-03-27T11:25:20.326Z,8.00
2017-03-27T11:26:24.021Z,8.20
2017-03-27T11:27:27.834Z,8.00
2017-03-27T11:28:32.260Z,7.90
2017-03-27T11:29:36.184Z,8.00
2017-03-27T11:30:40.089Z,7.90
2017-03-27T11:31:44.190Z,8.00
2017-03-27T11:32:48.203Z,7.90
2017-03-27T11:33:52.208Z,7.90
2017-03-27T11:34:55.746Z,7.90
2017-03-27T11:36:00.250Z,7.80
2017-03-27T11:37:04.156Z,7.90
2017-03-27T11:38:07.804Z,7.90
2017-03-27T11:39:11.080Z,7.90
2017-03-27T11:40:15.036Z,8.00
2017-03-27T11:41:18.909Z,7.80
2017-03-27T11:42:22.725Z,7.80
2017-03-27T11:43:26.493Z,7.70
2017-03-27T11:44:30.697Z,7.70
2017-03-27T11:45:34.635Z,7.70
2017-03-27T11:46:38.631Z,7.70
2017-03-27T11:47:56.963Z,7.60
2017-03-27T11:49:00.715Z,7.50
2017-03-27T11:50:04.527Z,7.50
2017-03-27T11:51:09.153Z,7.50
2017-03-27T11:52:13.153Z,7.50
2017-03-27T11:53:16.797Z,7.50
2017-03-27T11:54:20.282Z,7.50
2017-03-27T11:55:24.031Z,7.50
2017-03-27T11:56:27.789Z,7.50
2017-03-27T11:57:31.862Z,7.50
2017-03-27T11:58:35.729Z,7.50
2017-03-27T11:59:39.497Z,7.60
2017-03-27T12:00:43.359Z,7.60
2017-03-27T12:01:47.287Z,7.60
2017-03-27T12:02:51.043Z,7.60
2017-03-27T12:03:54.945Z,7.60
2017-03-27T12:04:58.689Z,7.60
2017-03-27T12:06:02.466Z,7.60
2017-03-27T12:07:06.312Z,7.60
2017-03-27T12:08:10.354Z,7.60
2017-03-27T12:09:14.581Z,7.60
2017-03-27T12:10:18.387Z,7.60
2017-03-27T12:11:21.991Z,7.60
2017-03-27T12:12:25.630Z,7.60
2017-03-27T12:13:29.880Z,7.60
2017-03-27T12:14:33.893Z,7.60
2017-03-27T12:15:37.729Z,7.60
2017-03-27T12:16:42.357Z,7.60
2017-03-27T12:17:47.123Z,7.60
2017-03-27T12:18:50.822Z,7.60
2017-03-27T12:19:54.699Z,7.60
2017-03-27T12:20:58.779Z,7.60
2017-03-27T12:22:02.369Z,7.70
2017-03-27T12:23:06.248Z,7.70
2017-03-27T12:24:10.293Z,7.70
2017-03-27T12:25:14.471Z,7.70
2017-03-27T12:26:18.428Z,7.70
2017-03-27T12:27:22.391Z,7.80
2017-03-27T12:28:27.378Z,7.60
2017-03-27T12:29:31.310Z,7.60
2017-03-27T12:30:35.328Z,7.60
2017-03-27T12:31:39.279Z,7.50
2017-03-27T12:32:42.968Z,7.60
2017-03-27T12:33:47.449Z,7.60
2017-03-27T12:34:51.265Z,7.70
2017-03-27T12:35:55.526Z,7.70
2017-03-27T12:37:13.869Z,7.60
2017-03-27T12:38:17.038Z,7.70
2017-03-27T12:39:21.011Z,7.70
2017-03-27T12:40:25.836Z,7.60
2017-03-27T12:41:29.638Z,7.60
2017-03-27T12:42:33.621Z,7.60
2017-03-27T12:43:37.162Z,7.60
2017-03-27T12:44:41.072Z,7.60
2017-03-27T12:45:44.734Z,7.60
2017-03-27T12:46:48.630Z,7.60
2017-03-27T12:47:52.528Z,7.50
2017-03-27T12:48:56.490Z,7.50
2017-03-27T12:50:00.121Z,7.60
2017-03-27T12:51:04.868Z,7.60
2017-03-27T12:52:08.759Z,7.60
2017-03-27T12:53:12.507Z,7.60
2017-03-27T12:54:16.641Z,7.70
2017-03-27T12:55:20.723Z,7.70
2017-03-27T12:56:24.850Z,7.60
2017-03-27T12:57:28.728Z,7.60
2017-03-27T12:58:32.680Z,7.60
2017-03-27T12:59:36.576Z,7.60
2017-03-27T13:00:40.513Z,7.60
2017-03-27T13:01:44.279Z,7.60
2017-03-27T13:02:48.048Z,7.60
2017-03-27T13:03:51.787Z,7.60
2017-03-27T13:04:55.427Z,7.60
2017-03-27T13:05:59.308Z,7.60
2017-03-27T13:07:03.367Z,7.60
2017-03-27T13:08:07.000Z,7.60
2017-03-27T13:09:10.808Z,7.60
2017-03-27T13:10:14.567Z,7.60
2017-03-27T13:11:18.426Z,7.60
2017-03-27T13:12:22.362Z,7.70
2017-03-27T13:13:26.131Z,7.70
2017-03-27T13:14:29.932Z,7.60
2017-03-27T13:15:34.746Z,7.70
2017-03-27T13:16:38.585Z,7.80
2017-03-27T13:17:42.463Z,7.70
2017-03-27T13:18:46.093Z,7.70
2017-03-27T13:19:50.228Z,7.70
2017-03-27T13:20:54.186Z,7.70
2017-03-27T13:21:58.007Z,7.70
2017-03-27T13:23:01.171Z,7.80
2017-03-27T13:24:04.834Z,7.80
2017-03-27T13:25:08.592Z,8.00
2017-03-27T13:26:12.198Z,8.10
2017-03-27T13:27:15.986Z,8.00
2017-03-27T13:28:19.883Z,7.90
2017-03-27T13:29:23.761Z,7.80
2017-03-27T13:30:27.640Z,7.80
2017-03-27T13:31:31.232Z,7.80
2017-03-27T13:32:35.161Z,7.80
2017-03-27T13:33:40.400Z,7.70
2017-03-27T13:34:44.863Z,7.70
2017-03-27T13:35:48.685Z,7.70
2017-03-27T13:36:52.589Z,7.60
2017-03-27T13:37:56.656Z,7.60
2017-03-27T13:39:00.294Z,7.60
2017-03-27T13:40:04.299Z,7.70
2017-03-27T13:41:07.963Z,7.60
2017-03-27T13:42:11.872Z,7.50
2017-03-27T13:43:15.881Z,7.50
2017-03-27T13:44:19.689Z,7.60
2017-03-27T13:45:23.687Z,7.50
2017-03-27T13:46:27.745Z,7.50
2017-03-27T13:47:31.684Z,7.50
2017-03-27T13:48:35.673Z,7.50
2017-03-27T13:49:39.826Z,7.60
2017-03-27T13:50:43.628Z,7.60
2017-03-27T13:51:48.596Z,7.60
2017-03-27T13:52:52.094Z,7.60
2017-03-27T13:53:55.652Z,7.60
2017-03-27T13:54:59.660Z,7.50
2017-03-27T13:56:03.552Z,7.50
2017-03-27T13:57:07.612Z,7.50
2017-03-27T13:58:10.833Z,7.50
2017-03-27T13:59:14.436Z,7.50
2017-03-27T14:00:18.360Z,7.50
2017-03-27T14:01:22.027Z,7.60
2017-03-27T14:02:26.845Z,7.60
2017-03-27T14:03:30.468Z,7.60
2017-03-27T14:04:34.361Z,7.50
2017-03-27T14:05:38.260Z,7.50
2017-03-27T14:06:42.240Z,7.50